createdAt,value
2022-09-28T00:01:14.089Z,0.00
2022-09-28T00:03:42.256Z,0.10
2022-09-28T00:06:12.767Z,0.00
2022-09-28T00:08:40.465Z,0.32
2022-09-28T00:11:11.972Z,0.15
2022-09-28T00:13:42.088Z,0.20
2022-09-28T00:16:17.983Z,0.10
2022-09-28T00:18:46.179Z,0.05
2022-09-28T00:21:16.931Z,0.30
2022-09-28T00:23:45.333Z,0.10
2022-09-28T00:26:12.966Z,0.45
2022-09-28T00:28:41.409Z,0.10
2022-09-28T00:31:09.082Z,0.20
2022-09-28T00:33:36.737Z,0.00
2022-09-28T00:36:04.712Z,0.20
2022-09-28T00:38:32.458Z,0.10
2022-09-28T00:41:00.164Z,0.50
2022-09-28T00:43:28.117Z,0.00
2022-09-28T00:46:02.330Z,0.00
2022-09-28T00:48:34.375Z,0.00
2022-09-28T00:51:05.614Z,0.00
2022-09-28T00:53:35.157Z,0.03
2022-09-28T00:56:07.129Z,0.22
2022-09-28T00:58:38.397Z,0.00
2022-09-28T01:01:06.201Z,0.00
2022-09-28T01:03:34.278Z,0.22
2022-09-28T01:06:04.104Z,0.00
2022-09-28T01:08:33.645Z,0.08
2022-09-28T01:11:01.678Z,0.03
2022-09-28T01:13:30.849Z,0.00
2022-09-28T01:16:13.181Z,0.10
2022-09-28T01:19:21.906Z,0.13
2022-09-28T01:22:07.576Z,0.68
2022-09-28T01:24:43.504Z,0.00
2022-09-28T01:27:15.626Z,0.10
2022-09-28T01:30:00.890Z,0.03
2022-09-28T01:32:51.179Z,0.00
2022-09-28T01:35:47.909Z,0.00
2022-09-28T01:38:25.343Z,0.00
2022-09-28T01:40:53.967Z,0.10
2022-09-28T01:43:25.307Z,0.00
2022-09-28T01:45:56.716Z,0.00
2022-09-28T01:48:29.430Z,0.00
2022-09-28T01:50:59.927Z,0.00
2022-09-28T01:53:40.261Z,0.00
2022-09-28T01:56:14.571Z,0.00
2022-09-28T01:58:59.712Z,0.00
2022-09-28T02:01:31.301Z,0.20
2022-09-28T02:04:03.827Z,0.00
2022-09-28T02:06:37.593Z,0.00
2022-09-28T02:09:11.757Z,0.00
2022-09-28T02:11:45.221Z,0.00
2022-09-28T02:14:16.115Z,0.00
2022-09-28T02:16:46.549Z,0.00
2022-09-28T02:19:19.825Z,0.08
2022-09-28T02:22:08.795Z,0.00
2022-09-28T02:24:47.034Z,0.00
2022-09-28T02:27:31.999Z,0.00
2022-09-28T02:30:00.488Z,0.00
2022-09-28T02:32:28.946Z,0.00
2022-09-28T02:34:56.976Z,0.00
2022-09-28T02:37:27.077Z,0.00
2022-09-28T02:39:54.624Z,0.00
2022-09-28T02:42:57.397Z,0.05
2022-09-28T02:45:54.507Z,0.00
2022-09-28T02:48:49.167Z,0.00
2022-09-28T02:51:41.010Z,0.00
2022-09-28T02:54:13.450Z,0.03
2022-09-28T02:57:13.159Z,0.00
2022-09-28T02:59:43.629Z,0.05
2022-09-28T03:02:23.005Z,0.00
2022-09-28T03:05:03.552Z,0.00
2022-09-28T03:10:38.402Z,0.00
2022-09-28T03:13:06.952Z,0.10
2022-09-28T03:15:36.330Z,0.20
2022-09-28T03:18:04.470Z,0.00
2022-09-28T03:20:33.031Z,0.00
2022-09-28T03:23:23.363Z,0.13
2022-09-28T03:25:48.840Z,0.00
2022-09-28T03:28:16.494Z,0.00
2022-09-28T03:30:44.150Z,0.00
2022-09-28T03:33:12.322Z,0.10
2022-09-28T03:35:39.997Z,0.00
2022-09-28T03:38:07.760Z,0.08
2022-09-28T03:40:37.953Z,0.00
2022-09-28T03:43:05.537Z,0.10
2022-09-28T03:45:33.684Z,0.00
2022-09-28T03:48:01.918Z,0.20
2022-09-28T03:50:29.613Z,0.10
2022-09-28T03:53:02.168Z,0.15
2022-09-28T03:55:30.118Z,0.00
2022-09-28T03:57:57.737Z,0.00
2022-09-28T04:00:25.392Z,0.03
2022-09-28T04:02:53.771Z,0.00
2022-09-28T04:05:21.362Z,0.10
2022-09-28T04:07:49.067Z,0.20
2022-09-28T04:10:17.299Z,0.10
2022-09-28T04:12:44.999Z,0.00
2022-09-28T04:15:12.976Z,0.03
2022-09-28T04:17:42.939Z,0.10
2022-09-28T04:20:12.065Z,0.00
2022-09-28T04:22:40.102Z,0.05
2022-09-28T04:25:08.677Z,0.00
2022-09-28T04:27:36.814Z,0.00
2022-09-28T04:30:05.593Z,0.40
2022-09-28T04:32:34.276Z,0.00
2022-09-28T04:35:02.213Z,0.03
2022-09-28T04:37:30.051Z,0.00
2022-09-28T04:39:58.009Z,0.03
2022-09-28T04:42:25.684Z,0.20
2022-09-28T04:44:53.390Z,0.00
2022-09-28T04:47:21.254Z,0.10
2022-09-28T04:49:49.557Z,0.20
2022-09-28T04:52:18.506Z,0.00
2022-09-28T04:54:48.319Z,0.03
2022-09-28T04:57:17.055Z,0.00
2022-09-28T04:59:44.956Z,0.00
2022-09-28T05:02:13.277Z,0.15
2022-09-28T05:04:41.957Z,0.30
2022-09-28T05:07:10.689Z,0.15
2022-09-28T05:09:39.273Z,0.00
2022-09-28T05:12:08.697Z,0.00
2022-09-28T05:14:36.372Z,0.00
2022-09-28T05:17:04.879Z,0.45
2022-09-28T05:19:33.951Z,0.00
2022-09-28T05:22:02.812Z,0.10
2022-09-28T05:24:31.541Z,0.00
2022-09-28T05:26:59.911Z,0.25
2022-09-28T05:29:31.918Z,0.00
2022-09-28T05:32:03.496Z,0.13
2022-09-28T05:34:31.684Z,0.00
2022-09-28T05:37:05.776Z,0.00
2022-09-28T05:39:33.691Z,0.03
2022-09-28T05:42:02.076Z,0.00
2022-09-28T05:44:30.176Z,0.00
2022-09-28T05:46:58.062Z,0.10
2022-09-28T05:49:25.954Z,0.00
2022-09-28T05:51:53.683Z,0.00
2022-09-28T05:54:21.707Z,0.00
2022-09-28T05:56:51.879Z,0.40
2022-09-28T05:59:19.473Z,0.22
2022-09-28T06:01:47.505Z,0.00
2022-09-28T06:04:16.030Z,0.10
2022-09-28T06:06:44.021Z,0.03
2022-09-28T06:09:11.665Z,0.00
2022-09-28T06:11:40.221Z,0.00
2022-09-28T06:14:09.119Z,0.10
2022-09-28T06:16:41.635Z,0.00
2022-09-28T06:19:12.243Z,0.10
2022-09-28T06:21:39.931Z,0.10
2022-09-28T06:24:08.009Z,0.00
2022-09-28T06:26:36.708Z,0.00
2022-09-28T06:29:05.298Z,0.20
2022-09-28T06:31:32.863Z,0.10
2022-09-28T06:34:00.961Z,0.03
2022-09-28T06:36:29.530Z,0.22
2022-09-28T06:38:57.438Z,0.03
2022-09-28T06:41:25.475Z,0.00
2022-09-28T06:43:53.085Z,0.28
2022-09-28T06:46:22.524Z,0.00
2022-09-28T06:48:52.114Z,0.00
2022-09-28T06:51:20.196Z,0.10
2022-09-28T06:53:49.161Z,0.00
2022-09-28T06:56:18.151Z,0.20
2022-09-28T06:58:45.928Z,0.00
2022-09-28T07:01:13.860Z,0.22
2022-09-28T07:03:42.143Z,0.10
2022-09-28T07:06:11.713Z,0.03
2022-09-28T07:08:40.974Z,0.17
2022-09-28T07:11:09.101Z,0.00
2022-09-28T07:13:49.606Z,0.00
2022-09-28T07:16:21.658Z,0.10
2022-09-28T07:18:53.614Z,0.10
2022-09-28T07:21:29.201Z,0.00
2022-09-28T07:23:59.716Z,0.10
2022-09-28T07:26:29.868Z,0.37
2022-09-28T07:28:57.636Z,0.00
2022-09-28T07:31:26.100Z,0.00
2022-09-28T07:33:54.160Z,0.00
2022-09-28T07:36:22.143Z,0.30
2022-09-28T07:38:51.032Z,0.15
2022-09-28T07:41:19.122Z,0.10
2022-09-28T07:43:47.055Z,0.10
2022-09-28T07:46:14.809Z,0.00
2022-09-28T07:48:43.846Z,0.20
2022-09-28T07:51:12.030Z,0.00
2022-09-28T07:53:39.730Z,0.00
2022-09-28T07:56:09.058Z,0.00
2022-09-28T07:58:38.756Z,0.30
2022-09-28T08:01:09.541Z,0.10
2022-09-28T08:06:07.339Z,0.10
2022-09-28T08:08:35.107Z,0.20
2022-09-28T08:11:03.303Z,0.22
2022-09-28T08:13:31.583Z,0.00
2022-09-28T08:16:02.820Z,0.40
2022-09-28T08:18:31.962Z,0.25
2022-09-28T08:20:59.577Z,0.10
2022-09-28T08:23:27.401Z,0.00
2022-09-28T08:25:55.755Z,0.10
2022-09-28T08:28:24.581Z,0.22
2022-09-28T08:30:52.661Z,0.77
2022-09-28T08:33:21.657Z,0.00
2022-09-28T08:36:14.317Z,0.20
2022-09-28T08:38:43.715Z,0.10
2022-09-28T08:41:59.936Z,0.10
2022-09-28T08:44:44.539Z,0.68
2022-09-28T08:47:18.391Z,0.65
2022-09-28T08:49:47.608Z,0.00
2022-09-28T08:52:21.131Z,0.20
2022-09-28T08:55:03.914Z,0.55
2022-09-28T08:57:41.607Z,0.03
2022-09-28T09:00:16.575Z,0.15
2022-09-28T09:02:44.416Z,0.25
2022-09-28T09:05:17.138Z,0.10
2022-09-28T09:08:06.800Z,0.00
2022-09-28T09:10:52.701Z,0.20
2022-09-28T09:14:05.040Z,0.22
2022-09-28T09:16:43.716Z,0.43
2022-09-28T09:19:17.478Z,0.20
2022-09-28T09:21:58.256Z,0.15
2022-09-28T09:24:37.002Z,0.00
2022-09-28T09:27:06.187Z,0.20
2022-09-28T09:29:57.207Z,0.10
2022-09-28T09:32:50.190Z,0.08
2022-09-28T09:35:33.972Z,0.13
2022-09-28T09:38:18.388Z,0.00
2022-09-28T09:40:49.031Z,0.10
2022-09-28T09:43:56.611Z,0.10
2022-09-28T09:46:28.120Z,0.13
2022-09-28T09:49:13.977Z,0.17
2022-09-28T09:52:11.491Z,0.40
2022-09-28T09:54:43.255Z,0.10
2022-09-28T09:57:25.284Z,0.00
2022-09-28T09:59:55.016Z,0.10
2022-09-28T10:02:29.152Z,0.00
2022-09-28T10:05:18.659Z,0.03
2022-09-28T10:07:58.906Z,0.25
2022-09-28T10:10:38.159Z,0.10
2022-09-28T10:13:05.847Z,0.00
2022-09-28T10:15:34.965Z,0.00
2022-09-28T10:18:11.044Z,0.05
2022-09-28T10:20:44.089Z,0.00
2022-09-28T10:23:23.052Z,0.03
2022-09-28T10:26:04.114Z,0.00
2022-09-28T10:31:38.334Z,0.00
2022-09-28T10:34:07.877Z,0.00
2022-09-28T10:36:52.701Z,0.80
2022-09-28T10:39:36.789Z,0.10
2022-09-28T10:42:10.138Z,0.00
2022-09-28T10:45:01.144Z,0.10
2022-09-28T10:47:30.978Z,0.03
2022-09-28T10:49:59.589Z,0.30
2022-09-28T10:52:39.433Z,0.00
2022-09-28T10:55:21.154Z,0.08
2022-09-28T10:57:48.900Z,0.20
2022-09-28T11:00:44.578Z,0.70
2022-09-28T11:03:30.839Z,0.40
2022-09-28T11:06:07.037Z,0.10
2022-09-28T11:08:37.778Z,0.13
2022-09-28T11:11:07.648Z,0.40
2022-09-28T11:13:59.448Z,0.10
2022-09-28T11:16:32.969Z,0.00
2022-09-28T11:19:23.663Z,0.00
2022-09-28T11:21:52.196Z,0.00
2022-09-28T11:24:23.916Z,0.10
2022-09-28T11:26:55.283Z,0.10
2022-09-28T11:32:00.678Z,0.55
2022-09-28T11:34:57.472Z,0.00
2022-09-28T11:37:51.957Z,0.00
2022-09-28T11:40:23.997Z,0.00
2022-09-28T11:42:51.912Z,0.13
2022-09-28T11:45:46.461Z,0.00
2022-09-28T11:48:25.951Z,0.10
2022-09-28T11:50:58.574Z,0.00
2022-09-28T11:54:08.790Z,0.25
2022-09-28T11:56:40.148Z,0.10
2022-09-28T11:59:11.962Z,0.85
2022-09-28T12:01:52.768Z,0.13
2022-09-28T12:04:21.030Z,0.00
2022-09-28T12:06:57.826Z,0.00
2022-09-28T12:09:41.945Z,0.00
2022-09-28T12:12:22.047Z,0.10
2022-09-28T12:14:54.391Z,0.20
2022-09-28T12:17:29.630Z,0.03
2022-09-28T12:20:14.622Z,0.00
2022-09-28T12:22:49.661Z,0.10
2022-09-28T12:25:21.243Z,0.00
2022-09-28T12:27:57.054Z,0.10
2022-09-28T12:30:25.465Z,0.20
2022-09-28T12:33:05.572Z,0.00
2022-09-28T12:35:58.348Z,0.00
2022-09-28T12:39:17.720Z,0.08
2022-09-28T12:41:53.634Z,0.00
2022-09-28T12:44:43.127Z,0.30
2022-09-28T12:47:46.975Z,0.00
2022-09-28T12:50:52.763Z,0.00
2022-09-28T12:53:33.384Z,0.13
2022-09-28T12:56:03.896Z,0.00
2022-09-28T12:58:36.301Z,0.10
2022-09-28T13:01:21.008Z,0.00
2022-09-28T13:04:01.213Z,0.10
2022-09-28T13:06:34.844Z,0.10
2022-09-28T13:09:02.880Z,0.00
2022-09-28T13:11:35.147Z,1.27
2022-09-28T13:14:09.048Z,0.40
2022-09-28T13:16:59.744Z,0.00
2022-09-28T13:19:47.027Z,0.08
2022-09-28T13:22:44.077Z,0.08
2022-09-28T13:25:20.748Z,0.00
2022-09-28T13:27:58.637Z,0.00
2022-09-28T13:30:27.216Z,0.10
2022-09-28T13:32:59.604Z,0.00
2022-09-28T13:35:27.710Z,0.15
2022-09-28T13:38:27.894Z,0.13
2022-09-28T13:41:04.629Z,0.10
2022-09-28T13:43:45.508Z,0.00
2022-09-28T13:46:27.490Z,0.00
2022-09-28T13:49:19.275Z,0.00
2022-09-28T13:52:13.069Z,0.10
2022-09-28T13:55:17.079Z,0.10
2022-09-28T13:57:48.211Z,0.10
2022-09-28T14:00:23.289Z,0.00
2022-09-28T14:03:03.269Z,0.10
2022-09-28T14:06:03.064Z,0.00
2022-09-28T14:08:39.635Z,0.10
2022-09-28T14:11:36.453Z,0.08
2022-09-28T14:14:07.263Z,0.10
2022-09-28T14:16:35.859Z,0.10
2022-09-28T14:19:09.499Z,0.00
2022-09-28T14:21:55.721Z,0.00
2022-09-28T14:24:29.206Z,0.10
2022-09-28T14:26:59.756Z,0.80
2022-09-28T14:29:29.631Z,0.00
2022-09-28T14:32:24.172Z,0.00
2022-09-28T14:35:02.377Z,0.08
2022-09-28T14:37:33.089Z,0.00
2022-09-28T14:40:01.464Z,0.10
2022-09-28T14:42:29.088Z,0.00
2022-09-28T14:45:06.323Z,0.00
2022-09-28T14:47:41.334Z,0.00
2022-09-28T14:50:26.805Z,0.08
2022-09-28T14:52:55.425Z,0.05
2022-09-28T14:55:31.389Z,0.08
2022-09-28T14:57:59.398Z,0.00
2022-09-28T15:00:29.033Z,0.00
2022-09-28T15:03:01.079Z,0.00
2022-09-28T15:05:55.350Z,0.13
2022-09-28T15:08:22.914Z,0.20
2022-09-28T15:10:51.281Z,0.00
2022-09-28T15:13:22.558Z,0.00
2022-09-28T15:15:56.986Z,0.00
2022-09-28T15:18:37.868Z,0.00
2022-09-28T15:21:05.499Z,0.00
2022-09-28T15:23:35.924Z,0.00
2022-09-28T15:26:05.674Z,0.00
2022-09-28T15:28:35.411Z,0.20
2022-09-28T15:31:05.079Z,0.03
2022-09-28T15:33:34.665Z,0.20
2022-09-28T15:36:05.649Z,0.00
2022-09-28T15:38:34.965Z,0.00
2022-09-28T15:41:03.759Z,0.10
2022-09-28T15:43:33.470Z,0.08
2022-09-28T15:46:14.161Z,0.08
2022-09-28T15:48:54.076Z,0.20
2022-09-28T15:51:23.781Z,0.10
2022-09-28T15:54:00.749Z,0.30
2022-09-28T15:56:31.810Z,0.13
2022-09-28T15:59:18.912Z,0.70
2022-09-28T16:01:47.766Z,0.37
2022-09-28T16:04:37.673Z,0.15
2022-09-28T16:07:11.100Z,0.30
2022-09-28T16:10:13.170Z,0.10
2022-09-28T16:12:42.417Z,0.28
2022-09-28T16:15:14.814Z,0.30
2022-09-28T16:17:42.436Z,0.57
2022-09-28T16:20:27.194Z,0.00
2022-09-28T16:22:56.945Z,0.00
2022-09-28T16:25:26.608Z,0.20
2022-09-28T16:27:54.987Z,0.35
2022-09-28T16:30:24.936Z,0.15
2022-09-28T16:33:29.263Z,0.20
2022-09-28T16:36:02.207Z,0.20
2022-09-28T16:38:30.209Z,0.68
2022-09-28T16:41:00.658Z,0.40
2022-09-28T16:43:28.258Z,0.10
2022-09-28T16:45:58.664Z,0.47
2022-09-28T16:48:30.913Z,0.30
2022-09-28T16:50:59.130Z,0.40
2022-09-28T16:53:27.189Z,0.80
2022-09-28T16:55:54.819Z,0.73
2022-09-28T16:58:24.925Z,0.20
2022-09-28T17:00:52.589Z,0.45
2022-09-28T17:03:20.983Z,1.08
2022-09-28T17:05:49.746Z,0.65
2022-09-28T17:08:19.659Z,0.62
2022-09-28T17:11:13.981Z,0.13
2022-09-28T17:13:44.150Z,0.28
2022-09-28T17:16:16.991Z,0.35
2022-09-28T17:18:45.574Z,0.55
2022-09-28T17:21:19.064Z,1.37
2022-09-28T17:23:48.592Z,1.45
2022-09-28T17:26:19.526Z,1.60
2022-09-28T17:28:47.528Z,3.22
2022-09-28T17:31:16.368Z,4.70
2022-09-28T17:33:44.989Z,1.17
2022-09-28T17:36:14.849Z,0.82
2022-09-28T17:38:42.746Z,1.12
2022-09-28T17:41:20.241Z,1.17
2022-09-28T17:43:49.094Z,1.00
2022-09-28T17:46:27.705Z,1.05
2022-09-28T17:48:57.836Z,0.50
2022-09-28T17:51:30.579Z,1.67
2022-09-28T17:53:59.024Z,2.30
2022-09-28T17:56:31.900Z,0.65
2022-09-28T17:59:03.309Z,0.98
2022-09-28T18:01:31.855Z,0.50
2022-09-28T18:04:01.139Z,1.20
2022-09-28T18:06:28.992Z,1.08
2022-09-28T18:08:56.726Z,1.70
2022-09-28T18:11:24.740Z,1.37
2022-09-28T18:13:52.421Z,1.50
2022-09-28T18:16:20.381Z,0.98
2022-09-28T18:18:48.713Z,0.30
2022-09-28T18:21:16.331Z,0.40
2022-09-28T18:23:43.984Z,0.62
2022-09-28T18:26:13.202Z,1.02
2022-09-28T18:28:41.473Z,0.28
2022-09-28T18:31:13.791Z,0.43
2022-09-28T18:33:51.154Z,0.45
2022-09-28T18:36:18.904Z,0.30
2022-09-28T18:38:47.053Z,0.52
2022-09-28T18:41:15.201Z,0.98
2022-09-28T18:43:50.009Z,0.85
2022-09-28T18:46:18.680Z,0.68
2022-09-28T18:48:46.468Z,0.35
2022-09-28T18:51:17.171Z,0.70
2022-09-28T18:56:16.251Z,0.50
2022-09-28T18:58:45.272Z,0.82
2022-09-28T19:01:31.891Z,2.42
2022-09-28T19:04:03.122Z,0.32
2022-09-28T19:06:32.478Z,0.70
2022-09-28T19:09:03.936Z,1.12
2022-09-28T19:11:33.603Z,1.08
2022-09-28T19:14:06.770Z,1.40
2022-09-28T19:16:34.731Z,1.37
2022-09-28T19:19:02.627Z,0.85
2022-09-28T19:21:33.109Z,0.70
2022-09-28T19:24:02.545Z,0.30
2022-09-28T19:26:34.179Z,1.25
2022-09-28T19:29:02.434Z,2.33
2022-09-28T19:31:30.491Z,1.45
2022-09-28T19:33:58.663Z,0.98
2022-09-28T19:36:27.068Z,0.52
2022-09-28T19:38:56.407Z,0.70
2022-09-28T19:41:26.480Z,0.50
2022-09-28T19:43:54.356Z,1.12
2022-09-28T19:46:22.118Z,0.50
2022-09-28T19:48:49.772Z,0.77
2022-09-28T19:51:17.638Z,0.20
2022-09-28T19:53:45.351Z,0.50
2022-09-28T19:56:12.972Z,0.60
2022-09-28T19:58:41.321Z,0.13
2022-09-28T20:01:09.041Z,0.47
2022-09-28T20:03:36.953Z,0.75
2022-09-28T20:06:05.230Z,0.37
2022-09-28T20:08:32.775Z,0.52
2022-09-28T20:11:00.796Z,1.33
2022-09-28T20:13:34.050Z,0.68
2022-09-28T20:16:06.613Z,1.85
2022-09-28T20:18:35.443Z,0.50
2022-09-28T20:21:05.982Z,0.20
2022-09-28T20:23:33.839Z,0.53
2022-09-28T20:26:02.154Z,0.65
2022-09-28T20:28:30.491Z,0.17
2022-09-28T20:31:16.334Z,0.60
2022-09-28T20:33:44.576Z,1.35
2022-09-28T20:36:20.508Z,0.30
2022-09-28T20:38:58.468Z,0.43
2022-09-28T20:41:26.080Z,0.40
2022-09-28T20:43:55.775Z,0.30
2022-09-28T20:46:23.645Z,0.30
2022-09-28T20:48:51.775Z,0.55
2022-09-28T20:51:20.014Z,0.32
2022-09-28T20:53:50.575Z,0.25
2022-09-28T20:56:23.101Z,0.30
2022-09-28T20:58:51.373Z,0.10
2022-09-28T21:01:24.000Z,0.32
2022-09-28T21:03:54.289Z,0.15
2022-09-28T21:06:24.320Z,0.35
2022-09-28T21:08:52.318Z,0.77
2022-09-28T21:11:22.096Z,0.10
2022-09-28T21:13:54.862Z,0.30
2022-09-28T21:16:22.751Z,0.13
2022-09-28T21:18:50.672Z,0.50
2022-09-28T21:21:19.938Z,0.30
2022-09-28T21:23:48.262Z,0.30
2022-09-28T21:26:21.370Z,0.32
2022-09-28T21:28:51.704Z,0.15
2022-09-28T21:31:19.369Z,0.30
2022-09-28T21:33:47.143Z,0.43
2022-09-28T21:36:15.097Z,0.30
2022-09-28T21:38:42.899Z,0.10
2022-09-28T21:41:10.525Z,1.25
2022-09-28T21:43:39.176Z,0.28
2022-09-28T21:46:06.852Z,0.47
2022-09-28T21:48:34.461Z,0.30
2022-09-28T21:51:05.314Z,0.40
2022-09-28T21:53:35.301Z,0.40
2022-09-28T21:56:06.179Z,0.03
2022-09-28T21:58:34.643Z,0.20
2022-09-28T22:01:06.079Z,0.00
2022-09-28T22:03:35.326Z,0.43
2022-09-28T22:06:04.875Z,0.20
2022-09-28T22:08:32.982Z,0.25
2022-09-28T22:11:02.728Z,0.37
2022-09-28T22:13:32.698Z,0.10
2022-09-28T22:16:00.795Z,0.10
2022-09-28T22:18:30.389Z,0.30
2022-09-28T22:21:01.616Z,0.10
2022-09-28T22:23:30.264Z,0.30
2022-09-28T22:26:05.717Z,0.37
2022-09-28T22:28:34.375Z,0.75
2022-09-28T22:31:02.611Z,0.15
2022-09-28T22:33:30.270Z,0.10
2022-09-28T22:35:58.217Z,0.05
2022-09-28T22:38:25.727Z,0.30
2022-09-28T22:40:55.424Z,0.47
2022-09-28T22:43:24.147Z,0.30
2022-09-28T22:46:06.063Z,0.30
2022-09-28T22:48:34.423Z,0.30
2022-09-28T22:51:03.222Z,0.10
2022-09-28T22:53:30.842Z,0.10
2022-09-28T22:55:59.874Z,0.15
2022-09-28T22:58:27.820Z,0.10
2022-09-28T23:00:55.396Z,0.00
2022-09-28T23:03:23.628Z,0.17
2022-09-28T23:05:52.788Z,0.85
2022-09-28T23:08:20.885Z,0.37
2022-09-28T23:10:48.963Z,0.37
2022-09-28T23:13:16.698Z,0.30
2022-09-28T23:15:44.467Z,0.22
2022-09-28T23:18:12.454Z,0.00
2022-09-28T23:20:40.042Z,0.15
2022-09-28T23:23:07.562Z,0.22
2022-09-28T23:25:35.482Z,0.22
2022-09-28T23:28:03.161Z,0.13
2022-09-28T23:30:30.777Z,0.20
2022-09-28T23:32:58.639Z,0.00
2022-09-28T23:35:26.178Z,0.25
2022-09-28T23:37:53.841Z,0.10
2022-09-28T23:40:21.889Z,0.20
2022-09-28T23:42:49.515Z,0.80
2022-09-28T23:45:17.097Z,0.20
2022-09-28T23:47:45.216Z,0.32
2022-09-28T23:50:13.081Z,0.25
2022-09-28T23:52:40.619Z,0.50
2022-09-28T23:55:08.713Z,0.08
2022-09-28T23:57:36.472Z,0.10
